sensor_id;sensor_type;location;lat;lon;timestamp;pressure;altitude;pressure_sealevel;temperature;humidity
75668;BME280;64266;48.798;44.756;2023-04-04T00:01:32;101518.47;;;12.72;61.38
75668;BME280;64266;48.798;44.756;2023-04-04T00:06:35;101517.66;;;12.71;61.76
75668;BME280;64266;48.798;44.756;2023-04-04T00:11:40;101492.16;;;12.57;61.68
75668;BME280;64266;48.798;44.756;2023-04-04T00:16:43;101529.16;;;12.59;62.68
75668;BME280;64266;48.798;44.756;2023-04-04T00:21:45;101539.22;;;12.57;61.42
75668;BME280;64266;48.798;44.756;2023-04-04T00:26:48;101501.84;;;12.38;63.15
75668;BME280;64266;48.798;44.756;2023-04-04T00:31:51;101520.03;;;12.41;62.57
75668;BME280;64266;48.798;44.756;2023-04-04T00:36:54;101506.16;;;12.39;62.87
75668;BME280;64266;48.798;44.756;2023-04-04T00:41:57;101504.91;;;12.42;62.90
75668;BME280;64266;48.798;44.756;2023-04-04T00:46:59;101547.38;;;12.62;63.20
75668;BME280;64266;48.798;44.756;2023-04-04T00:52:02;101545.22;;;12.45;62.44
75668;BME280;64266;48.798;44.756;2023-04-04T00:57:08;101537.00;;;12.47;63.77
75668;BME280;64266;48.798;44.756;2023-04-04T01:02:11;101521.25;;;12.45;62.83
75668;BME280;64266;48.798;44.756;2023-04-04T01:07:14;101531.22;;;12.57;63.28
75668;BME280;64266;48.798;44.756;2023-04-04T01:12:19;101538.41;;;12.56;62.83
75668;BME280;64266;48.798;44.756;2023-04-04T01:17:22;101539.25;;;12.50;63.08
75668;BME280;64266;48.798;44.756;2023-04-04T01:22:27;101530.69;;;12.41;63.61
75668;BME280;64266;48.798;44.756;2023-04-04T01:27:31;101557.84;;;12.57;62.88
75668;BME280;64266;48.798;44.756;2023-04-04T01:32:52;101562.75;;;12.53;63.33
75668;BME280;64266;48.798;44.756;2023-04-04T01:43:18;101506.19;;;12.20;62.92
75668;BME280;64266;48.798;44.756;2023-04-04T01:48:20;101530.84;;;12.46;62.04
75668;BME280;64266;48.798;44.756;2023-04-04T01:53:27;101531.13;;;12.32;62.79
75668;BME280;64266;48.798;44.756;2023-04-04T01:58:31;101509.69;;;12.20;62.92
75668;BME280;64266;48.798;44.756;2023-04-04T02:03:35;101512.75;;;12.17;62.99
75668;BME280;64266;48.798;44.756;2023-04-04T02:08:38;101542.19;;;12.22;63.35
75668;BME280;64266;48.798;44.756;2023-04-04T02:13:43;101556.13;;;12.11;62.92
75668;BME280;64266;48.798;44.756;2023-04-04T02:18:50;101545.13;;;11.88;64.05
75668;BME280;64266;48.798;44.756;2023-04-04T02:23:52;101558.22;;;11.89;64.97
75668;BME280;64266;48.798;44.756;2023-04-04T02:28:55;101539.84;;;11.75;65.12
75668;BME280;64266;48.798;44.756;2023-04-04T02:33:57;101560.47;;;11.79;64.51
75668;BME280;64266;48.798;44.756;2023-04-04T02:39:00;101543.88;;;11.58;64.67
75668;BME280;64266;48.798;44.756;2023-04-04T02:44:04;101558.63;;;11.73;65.13
75668;BME280;64266;48.798;44.756;2023-04-04T02:49:08;101551.25;;;11.69;65.99
75668;BME280;64266;48.798;44.756;2023-04-04T02:54:16;101572.94;;;11.85;65.25
75668;BME280;64266;48.798;44.756;2023-04-04T02:59:21;101564.34;;;11.77;64.78
75668;BME280;64266;48.798;44.756;2023-04-04T03:04:23;101566.78;;;11.85;64.62
75668;BME280;64266;48.798;44.756;2023-04-04T03:09:26;101581.50;;;11.94;65.30
75668;BME280;64266;48.798;44.756;2023-04-04T03:14:30;101582.75;;;11.85;63.97
75668;BME280;64266;48.798;44.756;2023-04-04T03:19:33;101570.09;;;11.87;65.80
75668;BME280;64266;48.798;44.756;2023-04-04T03:24:36;101575.41;;;11.87;64.51
75668;BME280;64266;48.798;44.756;2023-04-04T03:29:40;101567.81;;;11.90;65.16
75668;BME280;64266;48.798;44.756;2023-04-04T03:34:44;101588.22;;;12.16;65.79
75668;BME280;64266;48.798;44.756;2023-04-04T03:39:48;101597.22;;;12.15;65.80
75668;BME280;64266;48.798;44.756;2023-04-04T03:44:52;101589.88;;;12.17;63.58
75668;BME280;64266;48.798;44.756;2023-04-04T03:50:03;101596.38;;;12.28;65.16
75668;BME280;64266;48.798;44.756;2023-04-04T03:55:07;101610.50;;;12.28;65.80
75668;BME280;64266;48.798;44.756;2023-04-04T04:00:10;101598.22;;;12.34;64.03
75668;BME280;64266;48.798;44.756;2023-04-04T04:05:14;101577.75;;;12.41;63.91
75668;BME280;64266;48.798;44.756;2023-04-04T04:10:17;101612.00;;;12.82;64.44
75668;BME280;64266;48.798;44.756;2023-04-04T04:15:20;101609.47;;;13.00;62.98
75668;BME280;64266;48.798;44.756;2023-04-04T04:20:24;101610.94;;;13.34;63.26
75668;BME280;64266;48.798;44.756;2023-04-04T04:25:27;101601.19;;;13.52;61.90
75668;BME280;64266;48.798;44.756;2023-04-04T04:30:44;101559.00;;;14.17;60.30
75668;BME280;64266;48.798;44.756;2023-04-04T04:35:51;101585.47;;;15.33;56.32
75668;BME280;64266;48.798;44.756;2023-04-04T04:40:57;101564.91;;;15.75;56.26
75668;BME280;64266;48.798;44.756;2023-04-04T04:46:08;101583.94;;;16.59;53.22
75668;BME280;64266;48.798;44.756;2023-04-04T04:51:12;101510.22;;;16.68;52.76
75668;BME280;64266;48.798;44.756;2023-04-04T04:56:21;101557.25;;;17.82;50.50
75668;BME280;64266;48.798;44.756;2023-04-04T05:01:27;101576.88;;;18.60;48.12
75668;BME280;64266;48.798;44.756;2023-04-04T05:06:31;101609.03;;;19.46;47.36
75668;BME280;64266;48.798;44.756;2023-04-04T05:11:35;101601.91;;;19.99;45.20
75668;BME280;64266;48.798;44.756;2023-04-04T05:16:40;101595.06;;;20.75;43.84
75668;BME280;64266;48.798;44.756;2023-04-04T05:21:44;101594.69;;;21.54;43.13
75668;BME280;64266;48.798;44.756;2023-04-04T05:27:19;101592.53;;;22.11;40.97
75668;BME280;64266;48.798;44.756;2023-04-04T05:32:29;101586.16;;;22.56;41.04
75668;BME280;64266;48.798;44.756;2023-04-04T05:37:41;101604.09;;;23.01;41.21
75668;BME280;64266;48.798;44.756;2023-04-04T05:42:56;101594.78;;;23.17;38.98
75668;BME280;64266;48.798;44.756;2023-04-04T05:48:09;101591.94;;;23.43;39.61
75668;BME280;64266;48.798;44.756;2023-04-04T05:53:22;101586.00;;;23.36;38.99
75668;BME280;64266;48.798;44.756;2023-04-04T05:58:26;101608.88;;;23.87;38.97
75668;BME280;64266;48.798;44.756;2023-04-04T06:03:32;101593.59;;;24.01;38.88
75668;BME280;64266;48.798;44.756;2023-04-04T06:08:35;101579.34;;;24.19;38.21
75668;BME280;64266;48.798;44.756;2023-04-04T06:13:54;101562.47;;;24.46;36.99
75668;BME280;64266;48.798;44.756;2023-04-04T06:18:59;101579.31;;;24.67;38.06
75668;BME280;64266;48.798;44.756;2023-04-04T06:24:02;101594.63;;;24.76;37.45
75668;BME280;64266;48.798;44.756;2023-04-04T06:29:12;101549.41;;;24.72;37.69
75668;BME280;64266;48.798;44.756;2023-04-04T06:34:22;101581.19;;;25.27;37.20
75668;BME280;64266;48.798;44.756;2023-04-04T06:39:31;101605.28;;;25.66;36.47
75668;BME280;64266;48.798;44.756;2023-04-04T06:44:40;101518.66;;;25.14;36.59
75668;BME280;64266;48.798;44.756;2023-04-04T06:49:43;101564.81;;;24.95;36.12
75668;BME280;64266;48.798;44.756;2023-04-04T06:54:46;101597.56;;;24.85;36.70
75668;BME280;64266;48.798;44.756;2023-04-04T06:59:49;101593.88;;;24.71;37.52
75668;BME280;64266;48.798;44.756;2023-04-04T07:04:52;101594.63;;;25.00;37.51
75668;BME280;64266;48.798;44.756;2023-04-04T07:09:56;101590.00;;;24.77;36.92
75668;BME280;64266;48.798;44.756;2023-04-04T07:15:00;101550.03;;;24.88;36.29
75668;BME280;64266;48.798;44.756;2023-04-04T07:20:05;101595.72;;;24.99;37.34
75668;BME280;64266;48.798;44.756;2023-04-04T07:25:08;101591.47;;;24.93;37.31
75668;BME280;64266;48.798;44.756;2023-04-04T07:30:12;101594.78;;;24.43;37.95
75668;BME280;64266;48.798;44.756;2023-04-04T07:35:16;101599.06;;;23.96;38.55
75668;BME280;64266;48.798;44.756;2023-04-04T07:40:20;101585.03;;;23.60;37.78
75668;BME280;64266;48.798;44.756;2023-04-04T07:45:23;101576.06;;;23.26;38.92
75668;BME280;64266;48.798;44.756;2023-04-04T07:50:31;101588.78;;;22.77;39.61
75668;BME280;64266;48.798;44.756;2023-04-04T07:55:35;101600.25;;;22.53;40.17
75668;BME280;64266;48.798;44.756;2023-04-04T08:00:42;101603.81;;;22.39;40.27
75668;BME280;64266;48.798;44.756;2023-04-04T08:05:45;101595.25;;;21.96;41.25
75668;BME280;64266;48.798;44.756;2023-04-04T08:10:49;101577.41;;;21.85;40.67
75668;BME280;64266;48.798;44.756;2023-04-04T08:15:53;101590.94;;;21.80;40.77
75668;BME280;64266;48.798;44.756;2023-04-04T08:20:58;101581.47;;;21.98;40.46
75668;BME280;64266;48.798;44.756;2023-04-04T08:26:10;101569.84;;;21.97;40.79
75668;BME280;64266;48.798;44.756;2023-04-04T08:31:39;101567.44;;;21.96;40.96
75668;BME280;64266;48.798;44.756;2023-04-04T08:36:42;101529.63;;;21.76;40.34
75668;BME280;64266;48.798;44.756;2023-04-04T08:41:45;101566.06;;;22.03;39.41
75668;BME280;64266;48.798;44.756;2023-04-04T08:46:49;101557.44;;;21.96;39.42
75668;BME280;64266;48.798;44.756;2023-04-04T08:51:55;101558.19;;;22.12;40.09
75668;BME280;64266;48.798;44.756;2023-04-04T08:56:59;101541.19;;;22.11;39.89
75668;BME280;64266;48.798;44.756;2023-04-04T09:02:14;101527.06;;;22.35;39.49
75668;BME280;64266;48.798;44.756;2023-04-04T09:07:34;101543.25;;;22.40;38.12
75668;BME280;64266;48.798;44.756;2023-04-04T09:12:43;101529.03;;;22.14;38.59
75668;BME280;64266;48.798;44.756;2023-04-04T09:17:48;101535.31;;;21.74;39.56
75668;BME280;64266;48.798;44.756;2023-04-04T09:22:51;101551.78;;;21.57;39.96
75668;BME280;64266;48.798;44.756;2023-04-04T09:27:56;101563.66;;;21.77;40.06
75668;BME280;64266;48.798;44.756;2023-04-04T09:33:03;101560.16;;;21.96;39.35
75668;BME280;64266;48.798;44.756;2023-04-04T09:38:07;101533.59;;;22.19;38.56
75668;BME280;64266;48.798;44.756;2023-04-04T09:43:11;101532.50;;;22.25;37.04
75668;BME280;64266;48.798;44.756;2023-04-04T09:48:30;101485.59;;;21.80;36.53
75668;BME280;64266;48.798;44.756;2023-04-04T09:53:34;101528.81;;;21.70;37.25
75668;BME280;64266;48.798;44.756;2023-04-04T09:58:39;101525.59;;;21.68;37.25
75668;BME280;64266;48.798;44.756;2023-04-04T10:03:57;101463.00;;;21.36;36.77
75668;BME280;64266;48.798;44.756;2023-04-04T10:09:02;101510.38;;;22.12;37.78
75668;BME280;64266;48.798;44.756;2023-04-04T10:14:05;101491.78;;;22.01;36.77
75668;BME280;64266;48.798;44.756;2023-04-04T10:19:11;101527.66;;;22.17;35.69
75668;BME280;64266;48.798;44.756;2023-04-04T10:24:18;101528.97;;;22.29;34.88
75668;BME280;64266;48.798;44.756;2023-04-04T10:29:24;101524.97;;;22.17;35.37
75668;BME280;64266;48.798;44.756;2023-04-04T10:34:40;101545.50;;;22.12;35.26
75668;BME280;64266;48.798;44.756;2023-04-04T10:40:14;101522.25;;;22.17;35.05
75668;BME280;64266;48.798;44.756;2023-04-04T10:45:31;101526.91;;;21.91;35.46
75668;BME280;64266;48.798;44.756;2023-04-04T10:50:35;101474.25;;;21.83;34.90
75668;BME280;64266;48.798;44.756;2023-04-04T10:55:56;101455.09;;;21.80;33.94
75668;BME280;64266;48.798;44.756;2023-04-04T11:01:12;101511.25;;;21.93;33.98
75668;BME280;64266;48.798;44.756;2023-04-04T11:06:22;101485.31;;;22.02;34.75
75668;BME280;64266;48.798;44.756;2023-04-04T11:11:27;101500.72;;;21.91;34.78
75668;BME280;64266;48.798;44.756;2023-04-04T11:16:45;101485.59;;;21.85;34.71
75668;BME280;64266;48.798;44.756;2023-04-04T11:21:49;101491.31;;;21.69;35.56
75668;BME280;64266;48.798;44.756;2023-04-04T11:26:53;101522.09;;;21.57;35.73
75668;BME280;64266;48.798;44.756;2023-04-04T11:31:56;101494.53;;;21.60;36.96
75668;BME280;64266;48.798;44.756;2023-04-04T11:37:14;101495.31;;;21.96;36.27
75668;BME280;64266;48.798;44.756;2023-04-04T11:42:20;101508.22;;;22.09;35.18
75668;BME280;64266;48.798;44.756;2023-04-04T11:47:23;101497.97;;;22.06;35.26
75668;BME280;64266;48.798;44.756;2023-04-04T11:52:32;101508.72;;;22.22;35.64
75668;BME280;64266;48.798;44.756;2023-04-04T11:57:40;101482.84;;;22.10;35.41
75668;BME280;64266;48.798;44.756;2023-04-04T12:02:43;101503.13;;;22.08;34.63
75668;BME280;64266;48.798;44.756;2023-04-04T12:07:47;101482.34;;;21.98;35.18
75668;BME280;64266;48.798;44.756;2023-04-04T12:12:54;101482.06;;;22.05;34.38
75668;BME280;64266;48.798;44.756;2023-04-04T12:18:00;101495.28;;;22.01;34.56
75668;BME280;64266;48.798;44.756;2023-04-04T12:23:05;101490.72;;;21.92;34.49
75668;BME280;64266;48.798;44.756;2023-04-04T12:28:08;101497.47;;;21.79;34.78
75668;BME280;64266;48.798;44.756;2023-04-04T12:33:27;101485.66;;;21.65;35.32
75668;BME280;64266;48.798;44.756;2023-04-04T12:38:31;101492.66;;;21.71;35.31
75668;BME280;64266;48.798;44.756;2023-04-04T12:43:40;101496.44;;;21.65;35.32
75668;BME280;64266;48.798;44.756;2023-04-04T12:48:44;101463.00;;;21.46;35.47
75668;BME280;64266;48.798;44.756;2023-04-04T12:53:55;101443.59;;;21.19;35.59
75668;BME280;64266;48.798;44.756;2023-04-04T12:59:03;101488.38;;;21.20;35.96
75668;BME280;64266;48.798;44.756;2023-04-04T13:04:11;101497.00;;;21.22;36.97
75668;BME280;64266;48.798;44.756;2023-04-04T13:09:21;101493.78;;;21.25;36.25
75668;BME280;64266;48.798;44.756;2023-04-04T13:14:25;101485.41;;;21.11;36.02
75668;BME280;64266;48.798;44.756;2023-04-04T13:19:28;101480.03;;;21.16;36.37
75668;BME280;64266;48.798;44.756;2023-04-04T13:24:31;101484.56;;;21.05;36.27
75668;BME280;64266;48.798;44.756;2023-04-04T13:29:33;101484.00;;;20.93;36.75
75668;BME280;64266;48.798;44.756;2023-04-04T13:34:36;101502.88;;;20.83;37.14
75668;BME280;64266;48.798;44.756;2023-04-04T13:39:38;101492.56;;;20.55;37.88
75668;BME280;64266;48.798;44.756;2023-04-04T13:44:41;101501.44;;;20.55;38.61
75668;BME280;64266;48.798;44.756;2023-04-04T13:49:44;101493.91;;;20.47;38.09
75668;BME280;64266;48.798;44.756;2023-04-04T13:54:47;101496.88;;;20.51;38.49
75668;BME280;64266;48.798;44.756;2023-04-04T13:59:50;101456.06;;;20.22;37.96
75668;BME280;64266;48.798;44.756;2023-04-04T14:04:53;101493.31;;;20.35;38.97
75668;BME280;64266;48.798;44.756;2023-04-04T14:09:56;101481.44;;;20.26;38.66
75668;BME280;64266;48.798;44.756;2023-04-04T14:14:59;101496.50;;;20.27;38.71
75668;BME280;64266;48.798;44.756;2023-04-04T14:20:03;101483.00;;;20.22;38.52
75668;BME280;64266;48.798;44.756;2023-04-04T14:25:07;101490.31;;;20.27;38.11
75668;BME280;64266;48.798;44.756;2023-04-04T14:30:10;101486.22;;;20.24;37.97
75668;BME280;64266;48.798;44.756;2023-04-04T14:35:13;101468.13;;;20.10;38.42
75668;BME280;64266;48.798;44.756;2023-04-04T14:40:16;101463.78;;;19.98;39.05
75668;BME280;64266;48.798;44.756;2023-04-04T14:45:20;101470.25;;;20.02;38.87
75668;BME280;64266;48.798;44.756;2023-04-04T14:50:24;101472.38;;;20.00;39.39
75668;BME280;64266;48.798;44.756;2023-04-04T14:55:26;101478.81;;;19.94;40.05
75668;BME280;64266;48.798;44.756;2023-04-04T15:00:30;101475.03;;;19.90;39.76
75668;BME280;64266;48.798;44.756;2023-04-04T15:05:33;101493.03;;;19.85;40.26
75668;BME280;64266;48.798;44.756;2023-04-04T15:10:36;101480.31;;;19.70;39.96
75668;BME280;64266;48.798;44.756;2023-04-04T15:15:38;101428.34;;;19.28;40.31
75668;BME280;64266;48.798;44.756;2023-04-04T15:20:41;101468.28;;;19.41;41.15
75668;BME280;64266;48.798;44.756;2023-04-04T15:25:45;101476.44;;;19.24;41.17
75668;BME280;64266;48.798;44.756;2023-04-04T15:30:48;101457.75;;;19.08;41.54
75668;BME280;64266;48.798;44.756;2023-04-04T15:35:51;101477.16;;;19.10;41.95
75668;BME280;64266;48.798;44.756;2023-04-04T15:40:53;101453.97;;;18.77;42.28
75668;BME280;64266;48.798;44.756;2023-04-04T15:45:57;101477.41;;;18.81;42.54
75668;BME280;64266;48.798;44.756;2023-04-04T15:51:01;101464.78;;;18.55;42.65
75668;BME280;64266;48.798;44.756;2023-04-04T15:56:04;101455.34;;;18.31;43.58
75668;BME280;64266;48.798;44.756;2023-04-04T16:01:08;101496.31;;;18.43;43.85
75668;BME280;64266;48.798;44.756;2023-04-04T16:06:12;101499.94;;;18.32;44.55
75668;BME280;64266;48.798;44.756;2023-04-04T16:11:15;101479.19;;;18.06;44.50
75668;BME280;64266;48.798;44.756;2023-04-04T16:16:19;101510.19;;;18.13;45.09
75668;BME280;64266;48.798;44.756;2023-04-04T16:21:22;101491.91;;;17.94;45.00
75668;BME280;64266;48.798;44.756;2023-04-04T16:26:25;101509.91;;;17.93;45.96
75668;BME280;64266;48.798;44.756;2023-04-04T16:31:28;101512.50;;;17.88;45.74
75668;BME280;64266;48.798;44.756;2023-04-04T16:36:31;101527.22;;;17.85;46.21
75668;BME280;64266;48.798;44.756;2023-04-04T16:41:34;101500.13;;;17.65;46.65
75668;BME280;64266;48.798;44.756;2023-04-04T16:46:36;101524.97;;;17.61;46.34
75668;BME280;64266;48.798;44.756;2023-04-04T16:51:39;101523.75;;;17.52;47.11
75668;BME280;64266;48.798;44.756;2023-04-04T16:56:41;101519.09;;;17.30;47.54
75668;BME280;64266;48.798;44.756;2023-04-04T17:01:44;101504.63;;;17.15;47.33
75668;BME280;64266;48.798;44.756;2023-04-04T17:06:50;101530.53;;;17.26;47.57
75668;BME280;64266;48.798;44.756;2023-04-04T17:11:53;101531.94;;;17.28;47.42
75668;BME280;64266;48.798;44.756;2023-04-04T17:16:55;101526.56;;;17.12;47.50
75668;BME280;64266;48.798;44.756;2023-04-04T17:22:06;101544.28;;;17.13;47.49
75668;BME280;64266;48.798;44.756;2023-04-04T17:27:09;101512.22;;;16.90;47.67
75668;BME280;64266;48.798;44.756;2023-04-04T17:32:11;101538.38;;;16.99;47.78
75668;BME280;64266;48.798;44.756;2023-04-04T17:37:14;101530.88;;;16.85;47.85
75668;BME280;64266;48.798;44.756;2023-04-04T17:42:17;101542.66;;;16.84;48.20
75668;BME280;64266;48.798;44.756;2023-04-04T17:47:20;101532.22;;;16.70;48.46
75668;BME280;64266;48.798;44.756;2023-04-04T17:52:22;101540.72;;;16.67;48.68
75668;BME280;64266;48.798;44.756;2023-04-04T17:57:24;101527.97;;;16.58;47.91
75668;BME280;64266;48.798;44.756;2023-04-04T18:02:27;101532.13;;;16.65;48.70
75668;BME280;64266;48.798;44.756;2023-04-04T18:07:29;101530.16;;;16.49;48.99
75668;BME280;64266;48.798;44.756;2023-04-04T18:12:32;101521.78;;;16.46;48.71
75668;BME280;64266;48.798;44.756;2023-04-04T18:17:37;101527.88;;;16.30;49.16
75668;BME280;64266;48.798;44.756;2023-04-04T18:22:41;101501.38;;;16.16;48.65
75668;BME280;64266;48.798;44.756;2023-04-04T18:27:44;101528.84;;;16.23;48.84
75668;BME280;64266;48.798;44.756;2023-04-04T18:32:47;101527.31;;;16.16;49.31
75668;BME280;64266;48.798;44.756;2023-04-04T18:37:50;101522.47;;;16.01;49.97
75668;BME280;64266;48.798;44.756;2023-04-04T18:42:55;101530.47;;;15.78;50.01
75668;BME280;64266;48.798;44.756;2023-04-04T18:47:57;101530.13;;;15.63;51.59
75668;BME280;64266;48.798;44.756;2023-04-04T18:53:00;101522.00;;;15.69;50.91
75668;BME280;64266;48.798;44.756;2023-04-04T18:58:02;101504.56;;;15.55;51.49
75668;BME280;64266;48.798;44.756;2023-04-04T19:03:05;101515.72;;;15.64;51.05
75668;BME280;64266;48.798;44.756;2023-04-04T19:08:11;101521.78;;;15.59;51.14
75668;BME280;64266;48.798;44.756;2023-04-04T19:13:14;101521.53;;;15.49;51.11
75668;BME280;64266;48.798;44.756;2023-04-04T19:18:17;101530.63;;;15.30;50.85
75668;BME280;64266;48.798;44.756;2023-04-04T19:23:19;101514.34;;;15.20;50.98
75668;BME280;64266;48.798;44.756;2023-04-04T19:28:22;101513.84;;;15.00;50.57
75668;BME280;64266;48.798;44.756;2023-04-04T19:33:27;101507.63;;;14.88;50.59
75668;BME280;64266;48.798;44.756;2023-04-04T19:38:34;101534.28;;;15.06;50.59
75668;BME280;64266;48.798;44.756;2023-04-04T19:43:40;101518.31;;;14.88;50.98
75668;BME280;64266;48.798;44.756;2023-04-04T19:48:47;101539.38;;;14.96;51.08
75668;BME280;64266;48.798;44.756;2023-04-04T19:53:55;101536.00;;;14.89;51.10
75668;BME280;64266;48.798;44.756;2023-04-04T19:59:02;101531.47;;;14.71;51.29
75668;BME280;64266;48.798;44.756;2023-04-04T20:04:09;101512.63;;;14.54;51.46
75668;BME280;64266;48.798;44.756;2023-04-04T20:09:28;101521.34;;;14.61;51.26
75668;BME280;64266;48.798;44.756;2023-04-04T20:14:33;101501.19;;;14.47;51.78
75668;BME280;64266;48.798;44.756;2023-04-04T20:19:35;101511.56;;;14.55;52.13
75668;BME280;64266;48.798;44.756;2023-04-04T20:24:39;101525.97;;;14.54;51.60
75668;BME280;64266;48.798;44.756;2023-04-04T20:29:44;101515.56;;;14.46;52.10
75668;BME280;64266;48.798;44.756;2023-04-04T20:34:47;101523.00;;;14.44;52.20
75668;BME280;64266;48.798;44.756;2023-04-04T20:39:56;101524.91;;;14.37;52.56
75668;BME280;64266;48.798;44.756;2023-04-04T20:55:22;101505.19;;;14.20;53.90
75668;BME280;64266;48.798;44.756;2023-04-04T21:05:37;101516.25;;;14.24;53.57
75668;BME280;64266;48.798;44.756;2023-04-04T21:10:47;101515.41;;;14.23;53.93
75668;BME280;64266;48.798;44.756;2023-04-04T21:15:58;101512.00;;;14.16;53.94
75668;BME280;64266;48.798;44.756;2023-04-04T21:26:09;101495.25;;;13.91;54.26
75668;BME280;64266;48.798;44.756;2023-04-04T21:31:16;101487.09;;;13.86;54.80
75668;BME280;64266;48.798;44.756;2023-04-04T21:41:29;101494.88;;;13.87;54.79
75668;BME280;64266;48.798;44.756;2023-04-04T21:46:34;101493.53;;;13.78;54.92
75668;BME280;64266;48.798;44.756;2023-04-04T21:51:37;101476.28;;;13.63;54.56
75668;BME280;64266;48.798;44.756;2023-04-04T21:56:40;101470.31;;;13.61;54.75
75668;BME280;64266;48.798;44.756;2023-04-04T22:01:42;101486.50;;;13.66;54.98
75668;BME280;64266;48.798;44.756;2023-04-04T22:06:45;101473.81;;;13.61;55.14
75668;BME280;64266;48.798;44.756;2023-04-04T22:11:48;101468.91;;;13.58;54.77
75668;BME280;64266;48.798;44.756;2023-04-04T22:16:51;101454.44;;;13.47;54.94
75668;BME280;64266;48.798;44.756;2023-04-04T22:21:54;101433.47;;;13.33;54.46
75668;BME280;64266;48.798;44.756;2023-04-04T22:27:00;101460.66;;;13.41;54.96
75668;BME280;64266;48.798;44.756;2023-04-04T22:32:05;101473.19;;;13.41;54.62
75668;BME280;64266;48.798;44.756;2023-04-04T22:37:08;101442.97;;;13.29;54.42
75668;BME280;64266;48.798;44.756;2023-04-04T22:42:10;101440.13;;;13.24;54.93
75668;BME280;64266;48.798;44.756;2023-04-04T22:47:16;101444.56;;;13.30;54.72
75668;BME280;64266;48.798;44.756;2023-04-04T22:52:21;101420.19;;;13.01;55.32
75668;BME280;64266;48.798;44.756;2023-04-04T22:57:27;101424.63;;;13.07;54.91
75668;BME280;64266;48.798;44.756;2023-04-04T23:02:31;101441.03;;;13.11;55.53
75668;BME280;64266;48.798;44.756;2023-04-04T23:07:37;101440.03;;;13.12;55.09
75668;BME280;64266;48.798;44.756;2023-04-04T23:12:41;101446.97;;;13.13;55.61
75668;BME280;64266;48.798;44.756;2023-04-04T23:17:43;101435.38;;;13.01;55.90
75668;BME280;64266;48.798;44.756;2023-04-04T23:22:48;101426.81;;;12.92;56.19
75668;BME280;64266;48.798;44.756;2023-04-04T23:27:51;101431.50;;;12.97;56.45
75668;BME280;64266;48.798;44.756;2023-04-04T23:32:54;101444.00;;;12.96;56.89
75668;BME280;64266;48.798;44.756;2023-04-04T23:37:57;101436.06;;;12.90;57.06
75668;BME280;64266;48.798;44.756;2023-04-04T23:43:00;101416.59;;;12.89;58.26
75668;BME280;64266;48.798;44.756;2023-04-04T23:48:02;101415.47;;;12.79;57.93
75668;BME280;64266;48.798;44.756;2023-04-04T23:53:05;101403.44;;;12.70;58.70
75668;BME280;64266;48.798;44.756;2023-04-04T23:58:08;101420.22;;;12.70;58.35
